Pagina principale
METAR-TAF:

METAR-TAF

Aeroporti :

Sam Mbakwe Airport

Owerri, Nigeria

latitudine: 5-25-35N, longitudine: 7-12-20E, altezza: 114 m

METAR: mancante

Ora: 13:55 (12:55 UTC)

Previsione

Il bollettino è stato emesso 33 ore e 25 minuti fa, alle 03:30 UTC
Previsione valida dal 25 alle 06 UTC al 26 alle 12 UTC
Vento kt da nord
Visibilità 10 km o più
Nubi sparse ad un'altezza di 800 ft
Temporaneamente
dal 25 alle 06 UTC al 25 alle 08 UTC
Visibilità: 5000 m
foschia
Evoluzione graduale
dal 25 alle 08 UTC al 25 alle 10 UTC
Vento 10 kt da ovest/sud-ovest
Nuvoloso ad un'altezza di 1100 ft
Poco nuvoloso ad un'altezza di 2000 ft, Cumulonembo.

TAF: DNIM 250330Z 2506/2612 00000KT 9999 SCT008 TEMPO 2506/2508 5000 BR BECMG 2508/2510 25010KT BKN011 FEW020CB

Osservazioni e previsioni meteorologiche di più di 4000 aeroporti (messaggi METAR e TAF).

Le stazioni disponibili sono rappresentate dai dischi gialli e rossi sulla carta.

Puntare il mouse per vedere il nome della stazione.

Clicca sopra per visualizzare le osservazioni e previsioni meteorologiche.

Per cambiare la mappa : fare clic sui pulsanti verdi con una croce nera per ingrandire, il pulsante verde con un trattino per diminuire, o sulla freccia verde per le mappe adiacenti.


METAR-TAF: